Virginia — WCW4062 — position and weather

sailwx.info

Track history (hours):
 
Tides and Currents Weather Stations Pressure Air Temp Water Temp Dewpoint Dewpoint Depression Visibility Wind Speed Wind Dir Waves Ship Positions

Virginia

Owner: WEEKS MARINE, INC., CRANFORD, NJ. More information available from US FCC via Universal Licensing System and Coast Guard Vessel Documentation Center.

Last reported at 2015-Apr-28 09:33 UTC. Time now 2015-Apr-28 10:24 UTC.
Position N 40°45' W 074°01'.

MMSI: 366939110.

Date/timePositionNaut miles runAvg speedWind from/ knotsBaromVisibWave heightAir tempDewpointWater temp
2015-Apr-28 09:33N 40°45' W 074°01'2 1.5
2015-Apr-28 08:33N 40°44' W 074°01'4 4.0
2015-Apr-28 07:33N 40°41' W 074°05'0 0.0
2015-Apr-28 06:33N 40°41' W 074°05'0 0.0
2015-Apr-28 05:33N 40°41' W 074°05'0 0.0
2015-Apr-28 04:33N 40°41' W 074°05'0 0.0
2015-Apr-28 03:33N 40°41' W 074°05'0 0.0
2015-Apr-28 02:33N 40°41' W 074°05'0 0.0
2015-Apr-28 01:33N 40°41' W 074°05'0 0.0
2015-Apr-28 00:33N 40°41' W 074°05'2 2.4
2015-Apr-27 23:33N 40°39' W 074°07'3 3.4
2015-Apr-27 22:33N 40°42' W 074°09'0 0.1
2015-Apr-27 21:33N 40°42' W 074°09'0 0.2
2015-Apr-27 20:33N 40°42' W 074°08'3 3.1
2015-Apr-27 19:33N 40°41' W 074°05'0 0.0
2015-Apr-27 18:33N 40°41' W 074°05'0 0.0
2015-Apr-27 17:33N 40°41' W 074°05'0 0.0
2015-Apr-27 16:33N 40°41' W 074°05'0 0.0
2015-Apr-27 15:33N 40°41' W 074°05'0 0.0
2015-Apr-27 14:33N 40°41' W 074°05'0 0.0
2015-Apr-27 13:33N 40°41' W 074°05'0 0.0
2015-Apr-27 12:33N 40°41' W 074°05'0 0.0
2015-Apr-27 11:33N 40°41' W 074°05'0 0.0
2015-Apr-27 10:33N 40°41' W 074°05'0 0.0
2015-Apr-27 09:33N 40°41' W 074°05'0 0.0
2015-Apr-27 08:33N 40°41' W 074°05'0 0.0
2015-Apr-27 07:33N 40°41' W 074°05'0 0.0
2015-Apr-27 06:33N 40°41' W 074°05'0 0.0
2015-Apr-27 05:33N 40°41' W 074°05'0 0.0
2015-Apr-27 04:33N 40°41' W 074°05'0 0.0
2015-Apr-27 03:33N 40°41' W 074°05'0 0.0
2015-Apr-27 02:33N 40°41' W 074°05'0 0.0
2015-Apr-27 01:33N 40°41' W 074°05'0 0.0
2015-Apr-27 00:33N 40°41' W 074°05'0 0.0
2015-Apr-26 23:33N 40°41' W 074°05'0 0.0
2015-Apr-26 22:33N 40°41' W 074°05'0 0.0
2015-Apr-26 21:33N 40°41' W 074°05'0 0.0
2015-Apr-26 20:33N 40°41' W 074°05'0 0.0
2015-Apr-26 19:33N 40°41' W 074°05'0 0.0
2015-Apr-26 18:33N 40°41' W 074°05'0 0.0
2015-Apr-26 17:33N 40°41' W 074°05'0 0.0
2015-Apr-26 16:33N 40°41' W 074°05'0 0.0
2015-Apr-26 15:33N 40°41' W 074°05'0 0.0
2015-Apr-26 14:33N 40°41' W 074°05'0 0.0
2015-Apr-26 13:33N 40°41' W 074°05'0 0.0
2015-Apr-26 12:33N 40°41' W 074°05'0 0.0
2015-Apr-26 11:33N 40°41' W 074°05'0 0.0
2015-Apr-26 10:33N 40°41' W 074°05'0 0.0
2015-Apr-26 09:33N 40°41' W 074°05'0 0.0
2015-Apr-26 08:33N 40°41' W 074°05'0 0.0
2015-Apr-26 07:33N 40°41' W 074°05'0 0.0
2015-Apr-26 06:33N 40°41' W 074°05'0 0.0
2015-Apr-26 05:33N 40°41' W 074°05'0 0.0
2015-Apr-26 04:33N 40°41' W 074°05'0 0.0
2015-Apr-26 03:33N 40°41' W 074°05'0 0.0
2015-Apr-26 02:33N 40°41' W 074°05'0 0.0
2015-Apr-26 01:33N 40°41' W 074°05'0 0.0
2015-Apr-26 00:33N 40°41' W 074°05'0 0.0
2015-Apr-25 23:33N 40°41' W 074°05'0 0.0
2015-Apr-25 22:33N 40°41' W 074°05'0 0.0
2015-Apr-25 21:33N 40°41' W 074°05'0 0.0
2015-Apr-25 20:33N 40°41' W 074°05'0 0.0
2015-Apr-25 19:33N 40°41' W 074°05'0 0.0
2015-Apr-25 18:33N 40°41' W 074°05'0 0.1
2015-Apr-25 17:33N 40°40' W 074°04'0 0.1
2015-Apr-25 16:33N 40°41' W 074°05'0 0.0
2015-Apr-25 15:33N 40°41' W 074°05'0 0.0
2015-Apr-25 14:33N 40°41' W 074°05'0 0.0
2015-Apr-25 13:33N 40°41' W 074°05'0 0.0
2015-Apr-25 12:33N 40°41' W 074°05'0 0.0
2015-Apr-25 11:33N 40°41' W 074°05'0 0.0
2015-Apr-25 10:33N 40°41' W 074°05'0 0.0
2015-Apr-25 09:33N 40°41' W 074°05'0 0.0
2015-Apr-25 08:33N 40°41' W 074°05'0 0.0
2015-Apr-25 07:33N 40°41' W 074°05'0 0.0
2015-Apr-25 06:33N 40°41' W 074°05'0 0.0
2015-Apr-25 05:33N 40°41' W 074°05'0 0.0
2015-Apr-25 04:33N 40°41' W 074°05'0 0.0
2015-Apr-25 03:33N 40°41' W 074°05'0 0.0
2015-Apr-25 02:33N 40°41' W 074°05'0 0.0
2015-Apr-25 01:33N 40°41' W 074°05'0 0.0
2015-Apr-25 00:33N 40°41' W 074°05'0 0.0
2015-Apr-24 23:33N 40°41' W 074°05'0 0.0
2015-Apr-24 22:33N 40°41' W 074°05'0 0.0
2015-Apr-24 21:33N 40°41' W 074°05'0 0.0
2015-Apr-24 20:33N 40°41' W 074°05'0 0.0
2015-Apr-24 19:33N 40°41' W 074°05'3 2.7
2015-Apr-24 18:33N 40°39' W 074°07'1 0.5
2015-Apr-24 17:33N 40°39' W 074°06'2 2.2
2015-Apr-24 16:33N 40°41' W 074°05'0 0.0
2015-Apr-24 15:33N 40°41' W 074°05'0 0.0
2015-Apr-24 14:33N 40°41' W 074°05'0 0.0
2015-Apr-24 13:33N 40°41' W 074°05'0 0.0
2015-Apr-24 12:33N 40°41' W 074°05'2 2.2
2015-Apr-24 11:33N 40°39' W 074°06'0 0.4
2015-Apr-24 10:33N 40°39' W 074°06'2 2.0
2015-Apr-24 09:33N 40°41' W 074°05'0 0.0
2015-Apr-24 08:33N 40°41' W 074°05'0 0.0
2015-Apr-24 07:33N 40°41' W 074°05'0 0.0
2015-Apr-24 06:33N 40°41' W 074°05'0 0.0
2015-Apr-24 04:33N 40°41' W 074°05'0 0.0
2015-Apr-24 03:33N 40°41' W 074°05'0 0.0
2015-Apr-24 02:33N 40°41' W 074°05'0 0.0
2015-Apr-24 01:33N 40°41' W 074°05'0 0.0
2015-Apr-24 00:33N 40°41' W 074°05'0 0.0
2015-Apr-23 23:33N 40°41' W 074°05'0 0.0
2015-Apr-23 22:33N 40°41' W 074°05'0 0.0
2015-Apr-23 21:33N 40°41' W 074°05'0 0.0
2015-Apr-23 20:33N 40°41' W 074°05'0 0.0
2015-Apr-23 19:33N 40°41' W 074°05'0 0.0
2015-Apr-23 18:33N 40°41' W 074°05'0 0.0
2015-Apr-23 17:33N 40°41' W 074°05'3 3.0
2015-Apr-23 16:33N 40°40' W 074°08'2 1.7
2015-Apr-23 15:33N 40°41' W 074°08'0 0.0
2015-Apr-23 14:33N 40°41' W 074°08'0 0.0
2015-Apr-23 13:33N 40°41' W 074°08'0 0.0
2015-Apr-23 12:33N 40°41' W 074°08'0 0.0
2015-Apr-23 11:33N 40°41' W 074°08'0 0.0
2015-Apr-23 10:33N 40°41' W 074°08'0 0.5
2015-Apr-23 09:33N 40°42' W 074°09'4 4.0
2015-Apr-23 08:33N 40°40' W 074°04'1 0.8
2015-Apr-23 07:33N 40°41' W 074°05'0 0.0
2015-Apr-23 06:33N 40°41' W 074°05'0 0.0
2015-Apr-23 05:33N 40°41' W 074°05'0 0.0
2015-Apr-23 04:33N 40°41' W 074°05'0 0.0
2015-Apr-23 03:33N 40°41' W 074°05'0 0.0
2015-Apr-23 02:33N 40°41' W 074°05'0 0.0
2015-Apr-23 01:33N 40°41' W 074°05'0 0.0
2015-Apr-23 00:33N 40°41' W 074°05'0 0.0
2015-Apr-22 23:33N 40°41' W 074°05'0 0.0
2015-Apr-22 22:33N 40°41' W 074°05'0 0.0
2015-Apr-22 21:33N 40°41' W 074°05'0 0.0
2015-Apr-22 20:33N 40°41' W 074°05'3 2.5
2015-Apr-22 19:33N 40°41' W 074°08'1 0.7
2015-Apr-22 18:33N 40°42' W 074°08'1 0.6
2015-Apr-22 17:33N 40°41' W 074°08'1 1.1
2015-Apr-22 16:33N 40°40' W 074°08'3 3.2
2015-Apr-22 15:33N 40°40' W 074°04'1 0.9
2015-Apr-22 14:33N 40°41' W 074°05'0 0.1
2015-Apr-22 13:33N 40°41' W 074°05'0 0.1
2015-Apr-22 12:33N 40°41' W 074°05'0 0.2
2015-Apr-22 11:33N 40°41' W 074°04'0 0.2
2015-Apr-22 10:33N 40°41' W 074°05'0 0.0
2015-Apr-22 09:33N 40°41' W 074°05'0 0.0
2015-Apr-22 08:33N 40°41' W 074°05'0 0.0
2015-Apr-22 07:33N 40°41' W 074°05'0 0.0
2015-Apr-22 06:33N 40°41' W 074°05'0 0.0
2015-Apr-22 05:33N 40°41' W 074°05'0 0.0
2015-Apr-22 04:33N 40°41' W 074°05'0 0.0
2015-Apr-22 03:33N 40°41' W 074°05'0 0.0
2015-Apr-22 02:33N 40°41' W 074°05'0 0.0
2015-Apr-22 01:32N 40°41' W 074°05'0 0.0
2015-Apr-22 00:33N 40°41' W 074°05'0 0.0
2015-Apr-21 23:33N 40°41' W 074°05'0 0.0
2015-Apr-21 22:33N 40°41' W 074°05'0 0.0
2015-Apr-21 21:33N 40°41' W 074°05'0 0.0
2015-Apr-21 20:33N 40°41' W 074°05'0 0.0
2015-Apr-21 19:33N 40°41' W 074°05'0 0.0
2015-Apr-21 18:33N 40°41' W 074°05'0 0.0
2015-Apr-21 17:33N 40°41' W 074°05'0 0.0
2015-Apr-21 16:33N 40°41' W 074°05'0 0.0
2015-Apr-21 15:33N 40°41' W 074°05'0 0.2
2015-Apr-21 14:33N 40°41' W 074°04'0 0.2
2015-Apr-21 13:33N 40°41' W 074°05'3 2.7
2015-Apr-21 12:33N 40°39' W 074°07'1 1.5
2015-Apr-21 11:33N 40°39' W 074°05'2 1.5
2015-Apr-21 10:33N 40°40' W 074°04'0 0.1
2015-Apr-21 09:33N 40°41' W 074°05'0 0.0
2015-Apr-21 08:33N 40°41' W 074°05'0 0.0
2015-Apr-21 07:33N 40°41' W 074°05'0 0.0
2015-Apr-21 06:33N 40°41' W 074°05'0 0.0
2015-Apr-21 05:33N 40°41' W 074°05'0 0.0
2015-Apr-21 04:33N 40°41' W 074°05'0 0.0
2015-Apr-21 03:33N 40°41' W 074°05'0 0.0
2015-Apr-21 02:33N 40°41' W 074°05'0 0.0
2015-Apr-21 01:33N 40°41' W 074°05'0 0.0
2015-Apr-21 00:33N 40°41' W 074°05'0 0.0
2015-Apr-20 23:33N 40°41' W 074°05'0 0.0
2015-Apr-20 22:33N 40°41' W 074°05'0 0.0
2015-Apr-20 21:33N 40°41' W 074°05'0 0.0
2015-Apr-20 20:33N 40°41' W 074°05'0 0.0
2015-Apr-20 19:33N 40°41' W 074°05'0 0.0
2015-Apr-20 18:33N 40°41' W 074°05'0 0.0
2015-Apr-20 17:33N 40°41' W 074°05'0 0.0
2015-Apr-20 16:33N 40°41' W 074°05'0 0.2
2015-Apr-20 15:33N 40°40' W 074°04'0 0.2
2015-Apr-20 14:33N 40°41' W 074°05'0 0.0
2015-Apr-20 13:33N 40°41' W 074°05'0 0.2
2015-Apr-20 12:33N 40°41' W 074°04'0 0.2
2015-Apr-20 11:33N 40°41' W 074°05'0 0.0
2015-Apr-20 10:33N 40°41' W 074°05'0 0.0
2015-Apr-20 09:33N 40°41' W 074°05'0 0.0
2015-Apr-20 08:33N 40°41' W 074°05'0 0.0
2015-Apr-20 07:33N 40°41' W 074°05'0 0.0
2015-Apr-20 06:33N 40°41' W 074°05'0 0.0
2015-Apr-20 05:33N 40°41' W 074°05'0 0.0
2015-Apr-20 04:33N 40°41' W 074°05'0 0.0
2015-Apr-20 03:33N 40°41' W 074°05'0 0.0
2015-Apr-20 02:33N 40°41' W 074°05'0 0.0
2015-Apr-20 01:33N 40°41' W 074°05'0 0.0
2015-Apr-20 00:32N 40°41' W 074°05'0 0.0
2015-Apr-19 23:33N 40°41' W 074°05'0 0.0
2015-Apr-19 22:33N 40°41' W 074°05'0 0.0
2015-Apr-19 21:33N 40°41' W 074°05'0 0.0
2015-Apr-19 20:33N 40°41' W 074°05'0 0.0
2015-Apr-19 19:33N 40°41' W 074°05'0 0.0
2015-Apr-19 18:33N 40°41' W 074°05'0 0.0
2015-Apr-19 17:33N 40°41' W 074°05'0 0.0
2015-Apr-19 16:33N 40°41' W 074°05'0 0.0
2015-Apr-19 15:33N 40°41' W 074°05'0 0.0
2015-Apr-19 14:33N 40°41' W 074°05'0 0.0
2015-Apr-19 13:33N 40°41' W 074°05'0 0.0
2015-Apr-19 12:33N 40°41' W 074°05'0 0.0
2015-Apr-19 11:33N 40°41' W 074°05'0 0.0
2015-Apr-19 10:33N 40°41' W 074°05'0 0.0
2015-Apr-19 09:33N 40°41' W 074°05'0 0.0
2015-Apr-19 08:33N 40°41' W 074°05'0 0.0
2015-Apr-19 07:33N 40°41' W 074°05'0 0.0
2015-Apr-19 06:33N 40°41' W 074°05'0 0.0
2015-Apr-19 05:33N 40°41' W 074°05'0 0.0
2015-Apr-19 04:33N 40°41' W 074°05'0 0.0
2015-Apr-19 03:33N 40°41' W 074°05'0 0.0
2015-Apr-19 02:33N 40°41' W 074°05'0 0.0
2015-Apr-19 01:33N 40°41' W 074°05'0 0.0
2015-Apr-19 00:33N 40°41' W 074°05'0 0.0
2015-Apr-18 23:33N 40°41' W 074°05'0 0.0
2015-Apr-18 22:33N 40°41' W 074°05'0 0.0
2015-Apr-18 21:33N 40°41' W 074°05'0 0.0
2015-Apr-18 20:33N 40°41' W 074°05'0 0.1
2015-Apr-18 19:33N 40°41' W 074°04'0 0.1
2015-Apr-18 18:33N 40°41' W 074°05'0 0.0
2015-Apr-18 17:33N 40°41' W 074°05'0 0.0
2015-Apr-18 16:33N 40°41' W 074°05'0 0.0
2015-Apr-18 15:33N 40°41' W 074°05'0 0.0
2015-Apr-18 14:33N 40°41' W 074°05'0 0.0
2015-Apr-18 13:33N 40°41' W 074°05'0 0.0
2015-Apr-18 12:33N 40°41' W 074°05'0 0.0
2015-Apr-18 11:33N 40°41' W 074°05'0 0.0
2015-Apr-18 10:33N 40°41' W 074°05'0 0.0
2015-Apr-18 09:33N 40°41' W 074°05'  
Track history (hours):
 
Tides and Currents Weather Stations Pressure Air Temp Water Temp Dewpoint Dewpoint Depression Visibility Wind Speed Wind Dir Waves Ship Positions

Virginia

Owner: WEEKS MARINE, INC., CRANFORD, NJ. More information available from US FCC via Universal Licensing System and Coast Guard Vessel Documentation Center.

Last reported at 2015-Apr-28 09:33 UTC. Time now 2015-Apr-28 10:24 UTC.
Position N 40°45' W 074°01'.

MMSI: 366939110.

Date/timePositionNaut miles runAvg speedWind from/ knotsBaromVisibWave heightAir tempDewpointWater temp
2015-Apr-28 09:33N 40°45' W 074°01'2 1.5
2015-Apr-28 08:33N 40°44' W 074°01'4 4.0
2015-Apr-28 07:33N 40°41' W 074°05'0 0.0
2015-Apr-28 06:33N 40°41' W 074°05'0 0.0
2015-Apr-28 05:33N 40°41' W 074°05'0 0.0
2015-Apr-28 04:33N 40°41' W 074°05'0 0.0
2015-Apr-28 03:33N 40°41' W 074°05'0 0.0
2015-Apr-28 02:33N 40°41' W 074°05'0 0.0
2015-Apr-28 01:33N 40°41' W 074°05'0 0.0
2015-Apr-28 00:33N 40°41' W 074°05'2 2.4
2015-Apr-27 23:33N 40°39' W 074°07'3 3.4
2015-Apr-27 22:33N 40°42' W 074°09'0 0.1
2015-Apr-27 21:33N 40°42' W 074°09'0 0.2
2015-Apr-27 20:33N 40°42' W 074°08'3 3.1
2015-Apr-27 19:33N 40°41' W 074°05'0 0.0
2015-Apr-27 18:33N 40°41' W 074°05'0 0.0
2015-Apr-27 17:33N 40°41' W 074°05'0 0.0
2015-Apr-27 16:33N 40°41' W 074°05'0 0.0
2015-Apr-27 15:33N 40°41' W 074°05'0 0.0
2015-Apr-27 14:33N 40°41' W 074°05'0 0.0
2015-Apr-27 13:33N 40°41' W 074°05'0 0.0
2015-Apr-27 12:33N 40°41' W 074°05'0 0.0
2015-Apr-27 11:33N 40°41' W 074°05'0 0.0
2015-Apr-27 10:33N 40°41' W 074°05'0 0.0
2015-Apr-27 09:33N 40°41' W 074°05'0 0.0
2015-Apr-27 08:33N 40°41' W 074°05'0 0.0
2015-Apr-27 07:33N 40°41' W 074°05'0 0.0
2015-Apr-27 06:33N 40°41' W 074°05'0 0.0
2015-Apr-27 05:33N 40°41' W 074°05'0 0.0
2015-Apr-27 04:33N 40°41' W 074°05'0 0.0
2015-Apr-27 03:33N 40°41' W 074°05'0 0.0
2015-Apr-27 02:33N 40°41' W 074°05'0 0.0
2015-Apr-27 01:33N 40°41' W 074°05'0 0.0
2015-Apr-27 00:33N 40°41' W 074°05'0 0.0
2015-Apr-26 23:33N 40°41' W 074°05'0 0.0
2015-Apr-26 22:33N 40°41' W 074°05'0 0.0
2015-Apr-26 21:33N 40°41' W 074°05'0 0.0
2015-Apr-26 20:33N 40°41' W 074°05'0 0.0
2015-Apr-26 19:33N 40°41' W 074°05'0 0.0
2015-Apr-26 18:33N 40°41' W 074°05'0 0.0
2015-Apr-26 17:33N 40°41' W 074°05'0 0.0
2015-Apr-26 16:33N 40°41' W 074°05'0 0.0
2015-Apr-26 15:33N 40°41' W 074°05'0 0.0
2015-Apr-26 14:33N 40°41' W 074°05'0 0.0
2015-Apr-26 13:33N 40°41' W 074°05'0 0.0
2015-Apr-26 12:33N 40°41' W 074°05'0 0.0
2015-Apr-26 11:33N 40°41' W 074°05'0 0.0
2015-Apr-26 10:33N 40°41' W 074°05'0 0.0
2015-Apr-26 09:33N 40°41' W 074°05'0 0.0
2015-Apr-26 08:33N 40°41' W 074°05'0 0.0
2015-Apr-26 07:33N 40°41' W 074°05'0 0.0
2015-Apr-26 06:33N 40°41' W 074°05'0 0.0
2015-Apr-26 05:33N 40°41' W 074°05'0 0.0
2015-Apr-26 04:33N 40°41' W 074°05'0 0.0
2015-Apr-26 03:33N 40°41' W 074°05'0 0.0
2015-Apr-26 02:33N 40°41' W 074°05'0 0.0
2015-Apr-26 01:33N 40°41' W 074°05'0 0.0
2015-Apr-26 00:33N 40°41' W 074°05'0 0.0
2015-Apr-25 23:33N 40°41' W 074°05'0 0.0
2015-Apr-25 22:33N 40°41' W 074°05'0 0.0
2015-Apr-25 21:33N 40°41' W 074°05'0 0.0
2015-Apr-25 20:33N 40°41' W 074°05'0 0.0
2015-Apr-25 19:33N 40°41' W 074°05'0 0.0
2015-Apr-25 18:33N 40°41' W 074°05'0 0.1
2015-Apr-25 17:33N 40°40' W 074°04'0 0.1
2015-Apr-25 16:33N 40°41' W 074°05'0 0.0
2015-Apr-25 15:33N 40°41' W 074°05'0 0.0
2015-Apr-25 14:33N 40°41' W 074°05'0 0.0
2015-Apr-25 13:33N 40°41' W 074°05'0 0.0
2015-Apr-25 12:33N 40°41' W 074°05'0 0.0
2015-Apr-25 11:33N 40°41' W 074°05'0 0.0
2015-Apr-25 10:33N 40°41' W 074°05'0 0.0
2015-Apr-25 09:33N 40°41' W 074°05'0 0.0
2015-Apr-25 08:33N 40°41' W 074°05'0 0.0
2015-Apr-25 07:33N 40°41' W 074°05'0 0.0
2015-Apr-25 06:33N 40°41' W 074°05'0 0.0
2015-Apr-25 05:33N 40°41' W 074°05'0 0.0
2015-Apr-25 04:33N 40°41' W 074°05'0 0.0
2015-Apr-25 03:33N 40°41' W 074°05'0 0.0
2015-Apr-25 02:33N 40°41' W 074°05'0 0.0
2015-Apr-25 01:33N 40°41' W 074°05'0 0.0
2015-Apr-25 00:33N 40°41' W 074°05'0 0.0
2015-Apr-24 23:33N 40°41' W 074°05'0 0.0
2015-Apr-24 22:33N 40°41' W 074°05'0 0.0
2015-Apr-24 21:33N 40°41' W 074°05'0 0.0
2015-Apr-24 20:33N 40°41' W 074°05'0 0.0
2015-Apr-24 19:33N 40°41' W 074°05'3 2.7
2015-Apr-24 18:33N 40°39' W 074°07'1 0.5
2015-Apr-24 17:33N 40°39' W 074°06'2 2.2
2015-Apr-24 16:33N 40°41' W 074°05'0 0.0
2015-Apr-24 15:33N 40°41' W 074°05'0 0.0
2015-Apr-24 14:33N 40°41' W 074°05'0 0.0
2015-Apr-24 13:33N 40°41' W 074°05'0 0.0
2015-Apr-24 12:33N 40°41' W 074°05'2 2.2
2015-Apr-24 11:33N 40°39' W 074°06'0 0.4
2015-Apr-24 10:33N 40°39' W 074°06'2 2.0
2015-Apr-24 09:33N 40°41' W 074°05'0 0.0
2015-Apr-24 08:33N 40°41' W 074°05'0 0.0
2015-Apr-24 07:33N 40°41' W 074°05'0 0.0
2015-Apr-24 06:33N 40°41' W 074°05'0 0.0
2015-Apr-24 04:33N 40°41' W 074°05'0 0.0
2015-Apr-24 03:33N 40°41' W 074°05'0 0.0
2015-Apr-24 02:33N 40°41' W 074°05'0 0.0
2015-Apr-24 01:33N 40°41' W 074°05'0 0.0
2015-Apr-24 00:33N 40°41' W 074°05'0 0.0
2015-Apr-23 23:33N 40°41' W 074°05'0 0.0
2015-Apr-23 22:33N 40°41' W 074°05'0 0.0
2015-Apr-23 21:33N 40°41' W 074°05'0 0.0
2015-Apr-23 20:33N 40°41' W 074°05'0 0.0
2015-Apr-23 19:33N 40°41' W 074°05'0 0.0
2015-Apr-23 18:33N 40°41' W 074°05'0 0.0
2015-Apr-23 17:33N 40°41' W 074°05'3 3.0
2015-Apr-23 16:33N 40°40' W 074°08'2 1.7
2015-Apr-23 15:33N 40°41' W 074°08'0 0.0
2015-Apr-23 14:33N 40°41' W 074°08'0 0.0
2015-Apr-23 13:33N 40°41' W 074°08'0 0.0
2015-Apr-23 12:33N 40°41' W 074°08'0 0.0
2015-Apr-23 11:33N 40°41' W 074°08'0 0.0
2015-Apr-23 10:33N 40°41' W 074°08'0 0.5
2015-Apr-23 09:33N 40°42' W 074°09'4 4.0
2015-Apr-23 08:33N 40°40' W 074°04'1 0.8
2015-Apr-23 07:33N 40°41' W 074°05'0 0.0
2015-Apr-23 06:33N 40°41' W 074°05'0 0.0
2015-Apr-23 05:33N 40°41' W 074°05'0 0.0
2015-Apr-23 04:33N 40°41' W 074°05'0 0.0
2015-Apr-23 03:33N 40°41' W 074°05'0 0.0
2015-Apr-23 02:33N 40°41' W 074°05'0 0.0
2015-Apr-23 01:33N 40°41' W 074°05'0 0.0
2015-Apr-23 00:33N 40°41' W 074°05'0 0.0
2015-Apr-22 23:33N 40°41' W 074°05'0 0.0
2015-Apr-22 22:33N 40°41' W 074°05'0 0.0
2015-Apr-22 21:33N 40°41' W 074°05'0 0.0
2015-Apr-22 20:33N 40°41' W 074°05'3 2.5
2015-Apr-22 19:33N 40°41' W 074°08'1 0.7
2015-Apr-22 18:33N 40°42' W 074°08'1 0.6
2015-Apr-22 17:33N 40°41' W 074°08'1 1.1
2015-Apr-22 16:33N 40°40' W 074°08'3 3.2
2015-Apr-22 15:33N 40°40' W 074°04'1 0.9
2015-Apr-22 14:33N 40°41' W 074°05'0 0.1
2015-Apr-22 13:33N 40°41' W 074°05'0 0.1
2015-Apr-22 12:33N 40°41' W 074°05'0 0.2
2015-Apr-22 11:33N 40°41' W 074°04'0 0.2
2015-Apr-22 10:33N 40°41' W 074°05'0 0.0
2015-Apr-22 09:33N 40°41' W 074°05'0 0.0
2015-Apr-22 08:33N 40°41' W 074°05'0 0.0
2015-Apr-22 07:33N 40°41' W 074°05'0 0.0
2015-Apr-22 06:33N 40°41' W 074°05'0 0.0
2015-Apr-22 05:33N 40°41' W 074°05'0 0.0
2015-Apr-22 04:33N 40°41' W 074°05'0 0.0
2015-Apr-22 03:33N 40°41' W 074°05'0 0.0
2015-Apr-22 02:33N 40°41' W 074°05'0 0.0
2015-Apr-22 01:32N 40°41' W 074°05'0 0.0
2015-Apr-22 00:33N 40°41' W 074°05'0 0.0
2015-Apr-21 23:33N 40°41' W 074°05'0 0.0
2015-Apr-21 22:33N 40°41' W 074°05'0 0.0
2015-Apr-21 21:33N 40°41' W 074°05'0 0.0
2015-Apr-21 20:33N 40°41' W 074°05'0 0.0
2015-Apr-21 19:33N 40°41' W 074°05'0 0.0
2015-Apr-21 18:33N 40°41' W 074°05'0 0.0
2015-Apr-21 17:33N 40°41' W 074°05'0 0.0
2015-Apr-21 16:33N 40°41' W 074°05'0 0.0
2015-Apr-21 15:33N 40°41' W 074°05'0 0.2
2015-Apr-21 14:33N 40°41' W 074°04'0 0.2
2015-Apr-21 13:33N 40°41' W 074°05'3 2.7
2015-Apr-21 12:33N 40°39' W 074°07'1 1.5
2015-Apr-21 11:33N 40°39' W 074°05'2 1.5
2015-Apr-21 10:33N 40°40' W 074°04'0 0.1
2015-Apr-21 09:33N 40°41' W 074°05'0 0.0
2015-Apr-21 08:33N 40°41' W 074°05'0 0.0
2015-Apr-21 07:33N 40°41' W 074°05'0 0.0
2015-Apr-21 06:33N 40°41' W 074°05'0 0.0
2015-Apr-21 05:33N 40°41' W 074°05'0 0.0
2015-Apr-21 04:33N 40°41' W 074°05'0 0.0
2015-Apr-21 03:33N 40°41' W 074°05'0 0.0
2015-Apr-21 02:33N 40°41' W 074°05'0 0.0
2015-Apr-21 01:33N 40°41' W 074°05'0 0.0
2015-Apr-21 00:33N 40°41' W 074°05'0 0.0
2015-Apr-20 23:33N 40°41' W 074°05'0 0.0
2015-Apr-20 22:33N 40°41' W 074°05'0 0.0
2015-Apr-20 21:33N 40°41' W 074°05'0 0.0
2015-Apr-20 20:33N 40°41' W 074°05'0 0.0
2015-Apr-20 19:33N 40°41' W 074°05'0 0.0
2015-Apr-20 18:33N 40°41' W 074°05'0 0.0
2015-Apr-20 17:33N 40°41' W 074°05'0 0.0
2015-Apr-20 16:33N 40°41' W 074°05'0 0.2
2015-Apr-20 15:33N 40°40' W 074°04'0 0.2
2015-Apr-20 14:33N 40°41' W 074°05'0 0.0
2015-Apr-20 13:33N 40°41' W 074°05'0 0.2
2015-Apr-20 12:33N 40°41' W 074°04'0 0.2
2015-Apr-20 11:33N 40°41' W 074°05'0 0.0
2015-Apr-20 10:33N 40°41' W 074°05'0 0.0
2015-Apr-20 09:33N 40°41' W 074°05'0 0.0
2015-Apr-20 08:33N 40°41' W 074°05'0 0.0
2015-Apr-20 07:33N 40°41' W 074°05'0 0.0
2015-Apr-20 06:33N 40°41' W 074°05'0 0.0
2015-Apr-20 05:33N 40°41' W 074°05'0 0.0
2015-Apr-20 04:33N 40°41' W 074°05'0 0.0
2015-Apr-20 03:33N 40°41' W 074°05'0 0.0
2015-Apr-20 02:33N 40°41' W 074°05'0 0.0
2015-Apr-20 01:33N 40°41' W 074°05'0 0.0
2015-Apr-20 00:32N 40°41' W 074°05'0 0.0
2015-Apr-19 23:33N 40°41' W 074°05'0 0.0
2015-Apr-19 22:33N 40°41' W 074°05'0 0.0
2015-Apr-19 21:33N 40°41' W 074°05'0 0.0
2015-Apr-19 20:33N 40°41' W 074°05'0 0.0
2015-Apr-19 19:33N 40°41' W 074°05'0 0.0
2015-Apr-19 18:33N 40°41' W 074°05'0 0.0
2015-Apr-19 17:33N 40°41' W 074°05'0 0.0
2015-Apr-19 16:33N 40°41' W 074°05'0 0.0
2015-Apr-19 15:33N 40°41' W 074°05'0 0.0
2015-Apr-19 14:33N 40°41' W 074°05'0 0.0
2015-Apr-19 13:33N 40°41' W 074°05'0 0.0
2015-Apr-19 12:33N 40°41' W 074°05'0 0.0
2015-Apr-19 11:33N 40°41' W 074°05'0 0.0
2015-Apr-19 10:33N 40°41' W 074°05'0 0.0
2015-Apr-19 09:33N 40°41' W 074°05'0 0.0
2015-Apr-19 08:33N 40°41' W 074°05'0 0.0
2015-Apr-19 07:33N 40°41' W 074°05'0 0.0
2015-Apr-19 06:33N 40°41' W 074°05'0 0.0
2015-Apr-19 05:33N 40°41' W 074°05'0 0.0
2015-Apr-19 04:33N 40°41' W 074°05'0 0.0
2015-Apr-19 03:33N 40°41' W 074°05'0 0.0
2015-Apr-19 02:33N 40°41' W 074°05'0 0.0
2015-Apr-19 01:33N 40°41' W 074°05'0 0.0
2015-Apr-19 00:33N 40°41' W 074°05'0 0.0
2015-Apr-18 23:33N 40°41' W 074°05'0 0.0
2015-Apr-18 22:33N 40°41' W 074°05'0 0.0
2015-Apr-18 21:33N 40°41' W 074°05'0 0.0
2015-Apr-18 20:33N 40°41' W 074°05'0 0.1
2015-Apr-18 19:33N 40°41' W 074°04'0 0.1
2015-Apr-18 18:33N 40°41' W 074°05'0 0.0
2015-Apr-18 17:33N 40°41' W 074°05'0 0.0
2015-Apr-18 16:33N 40°41' W 074°05'0 0.0
2015-Apr-18 15:33N 40°41' W 074°05'0 0.0
2015-Apr-18 14:33N 40°41' W 074°05'0 0.0
2015-Apr-18 13:33N 40°41' W 074°05'0 0.0
2015-Apr-18 12:33N 40°41' W 074°05'0 0.0
2015-Apr-18 11:33N 40°41' W 074°05'0 0.0
2015-Apr-18 10:33N 40°41' W 074°05'0 0.0
2015-Apr-18 09:33N 40°41' W 074°05'  

Dump ship's entire track history